Time;durP1;ratioP1;P1;durP2;ratioP2;P2;SDS_P1;SDS_P2;PMS_P1;PMS_P2;Temp;Humidity;BMP_temperature;BMP_pressure;BME280_temperature;BME280_humidity;BME280_pressure;Samples;Min_cycle;Max_cycle;Signal;HPM_P1;HPM_P2
2023/10/29 00:02:07;;;;;;;4.20;1.85;;;13.40;99.90;;;;;;5007753;28;20026;-75
2023/10/29 00:04:35;;;;;;;4.07;1.83;;;13.40;99.90;;;;;;5009050;28;20018;-74
2023/10/29 00:07:02;;;;;;;5.30;1.73;;;13.40;99.90;;;;;;4999713;28;20030;-75
2023/10/29 00:09:28;;;;;;;5.70;1.60;;;13.40;99.90;;;;;;5000184;28;20042;-74
2023/10/29 00:11:54;;;;;;;3.80;1.60;;;13.40;99.90;;;;;;5009450;28;20018;-75
2023/10/29 00:14:19;;;;;;;8.32;2.03;;;13.50;99.90;;;;;;5002780;28;20029;-74
2023/10/29 00:16:45;;;;;;;7.07;2.10;;;13.50;99.90;;;;;;5010161;28;20045;-74
2023/10/29 00:19:11;;;;;;;5.90;1.80;;;13.50;99.90;;;;;;5009678;28;20022;-75
2023/10/29 00:21:37;;;;;;;3.72;1.58;;;13.60;99.90;;;;;;5005227;28;20123;-75
2023/10/29 00:24:03;;;;;;;5.50;1.80;;;13.60;99.90;;;;;;5007261;28;20030;-75
2023/10/29 00:26:29;;;;;;;2.78;1.58;;;13.70;99.90;;;;;;5009535;28;20032;-76
2023/10/29 00:28:55;;;;;;;5.90;1.60;;;13.80;99.90;;;;;;5008309;28;20387;-75
2023/10/29 00:31:20;;;;;;;4.03;1.58;;;13.90;99.90;;;;;;5009196;28;20026;-75
2023/10/29 00:33:46;;;;;;;4.35;1.63;;;13.90;99.90;;;;;;5008939;28;20370;-75
2023/10/29 00:36:12;;;;;;;5.53;1.60;;;14.00;99.90;;;;;;5008745;28;20370;-75
2023/10/29 00:38:38;;;;;;;4.60;1.50;;;14.00;99.90;;;;;;5009151;28;20044;-75
2023/10/29 00:41:03;;;;;;;3.92;1.23;;;14.00;99.90;;;;;;5003210;28;20509;-75
2023/10/29 00:46:05;;;;;;;5.63;1.20;;;14.00;99.90;;;;;;5003048;28;20208;-75
2023/10/29 00:48:31;;;;;;;4.60;1.40;;;14.00;99.90;;;;;;4990655;28;20034;-76
2023/10/29 00:50:57;;;;;;;6.90;1.38;;;14.10;99.90;;;;;;5008840;28;20073;-75
2023/10/29 00:53:24;;;;;;;5.50;1.38;;;14.10;99.90;;;;;;4970000;28;1112089;-75
2023/10/29 00:55:50;;;;;;;4.55;1.20;;;14.10;99.90;;;;;;5004135;28;20037;-75
2023/10/29 00:58:16;;;;;;;4.22;1.20;;;14.10;99.90;;;;;;4999029;28;20026;-75
2023/10/29 01:00:42;;;;;;;4.15;1.63;;;14.10;99.90;;;;;;4999198;28;20065;-75
2023/10/29 01:03:08;;;;;;;6.00;1.40;;;14.20;99.90;;;;;;5008408;28;20483;-75
2023/10/29 01:05:34;;;;;;;5.03;1.50;;;14.10;99.90;;;;;;5009456;28;20395;-75
2023/10/29 01:08:00;;;;;;;3.45;1.02;;;14.20;99.90;;;;;;5007160;28;20041;-75
2023/10/29 01:10:26;;;;;;;3.97;1.35;;;14.20;99.90;;;;;;5006103;28;20076;-75
2023/10/29 01:12:51;;;;;;;4.20;1.25;;;14.20;99.90;;;;;;5009029;28;20426;-76
2023/10/29 01:15:17;;;;;;;3.75;1.27;;;14.20;99.90;;;;;;5006356;28;20121;-76
2023/10/29 01:17:42;;;;;;;6.05;1.50;;;14.20;99.90;;;;;;4999454;28;20022;-76
2023/10/29 01:20:09;;;;;;;4.18;1.70;;;14.20;99.90;;;;;;5004772;28;20018;-76
2023/10/29 01:22:34;;;;;;;3.42;1.20;;;14.20;99.90;;;;;;5009388;28;20050;-76
2023/10/29 01:25:02;;;;;;;3.45;1.15;;;14.20;99.90;;;;;;5009183;28;20054;-76
2023/10/29 01:27:28;;;;;;;4.57;1.08;;;14.20;99.90;;;;;;5008722;28;20052;-75
2023/10/29 01:29:54;;;;;;;1.63;1.05;;;14.20;99.90;;;;;;5003297;28;20030;-75
2023/10/29 01:32:19;;;;;;;4.90;1.20;;;14.20;99.90;;;;;;4999979;28;20121;-75
2023/10/29 01:34:45;;;;;;;4.70;1.48;;;14.10;99.90;;;;;;5005846;28;20026;-75
2023/10/29 01:37:10;;;;;;;3.00;1.15;;;14.20;99.90;;;;;;5009439;28;20063;-75
2023/10/29 01:39:36;;;;;;;4.85;1.25;;;14.20;99.90;;;;;;4994889;28;20033;-75
2023/10/29 01:42:02;;;;;;;1.90;1.00;;;14.20;99.90;;;;;;5002054;28;20018;-75
2023/10/29 01:44:27;;;;;;;3.28;1.10;;;14.20;99.90;;;;;;5012358;28;20022;-75
2023/10/29 01:46:53;;;;;;;2.03;0.93;;;14.20;99.90;;;;;;5012500;28;20029;-76
2023/10/29 01:49:18;;;;;;;4.15;1.30;;;14.20;99.90;;;;;;5011906;28;20049;-75
2023/10/29 01:51:44;;;;;;;3.58;1.17;;;14.20;99.90;;;;;;5012778;28;20046;-75
2023/10/29 01:54:09;;;;;;;3.15;1.00;;;14.20;99.90;;;;;;5011596;28;20665;-75
2023/10/29 01:56:35;;;;;;;3.33;0.80;;;14.20;99.90;;;;;;5012780;28;20026;-75
2023/10/29 01:59:00;;;;;;;4.25;1.15;;;14.20;99.90;;;;;;5011703;28;20022;-75
2023/10/29 02:01:26;;;;;;;3.80;0.80;;;14.20;99.90;;;;;;5002220;28;20030;-75
2023/10/29 02:03:52;;;;;;;2.72;1.00;;;14.20;99.90;;;;;;5012231;28;20284;-75
2023/10/29 02:06:18;;;;;;;2.47;0.90;;;14.20;99.90;;;;;;5012896;28;20461;-75
2023/10/29 02:08:44;;;;;;;5.45;0.75;;;14.20;99.90;;;;;;5012336;28;20018;-75
2023/10/29 02:11:09;;;;;;;3.00;0.73;;;14.10;99.90;;;;;;5012231;28;20036;-75
2023/10/29 02:13:35;;;;;;;3.65;0.60;;;14.00;99.90;;;;;;5001483;28;20026;-75
2023/10/29 02:16:00;;;;;;;3.33;0.60;;;13.80;99.90;;;;;;5012034;28;20018;-75
2023/10/29 02:18:26;;;;;;;2.83;0.68;;;13.70;99.90;;;;;;5012386;28;20049;-75
2023/10/29 02:20:51;;;;;;;2.28;0.63;;;13.60;99.90;;;;;;5010769;28;20541;-75
2023/10/29 02:23:17;;;;;;;1.90;0.50;;;13.50;99.90;;;;;;5011549;28;20052;-76
2023/10/29 02:25:42;;;;;;;4.05;0.80;;;13.40;99.90;;;;;;5012457;28;20034;-75
2023/10/29 02:28:08;;;;;;;3.20;0.90;;;13.30;99.90;;;;;;5009244;28;20065;-74
2023/10/29 02:30:34;;;;;;;1.55;0.50;;;13.20;99.90;;;;;;5011994;28;20037;-74
2023/10/29 02:32:59;;;;;;;1.98;0.60;;;13.10;99.90;;;;;;5011722;28;20033;-74
2023/10/29 02:35:25;;;;;;;3.00;0.82;;;13.00;99.90;;;;;;5007412;28;20018;-74
2023/10/29 02:37:50;;;;;;;3.65;0.75;;;13.00;99.90;;;;;;5007635;28;20050;-74
2023/10/29 02:40:16;;;;;;;3.88;0.65;;;12.90;99.90;;;;;;5009708;28;20022;-74
2023/10/29 02:42:41;;;;;;;2.30;0.70;;;12.80;99.90;;;;;;5011947;28;20040;-74
2023/10/29 02:45:07;;;;;;;4.70;0.80;;;12.70;99.90;;;;;;5006479;28;20474;-75
2023/10/29 02:47:33;;;;;;;3.17;0.80;;;12.70;99.90;;;;;;4994053;28;20214;-74
2023/10/29 02:49:59;;;;;;;4.80;0.88;;;12.70;99.90;;;;;;5003787;28;20029;-74
2023/10/29 02:52:24;;;;;;;6.38;0.77;;;12.70;99.90;;;;;;5008675;28;20041;-74
2023/10/29 02:54:50;;;;;;;5.75;1.02;;;12.60;99.90;;;;;;5011136;28;20093;-74
2023/10/29 02:57:16;;;;;;;1.95;0.77;;;12.60;99.90;;;;;;5011650;28;20029;-75
2023/10/29 02:59:42;;;;;;;3.78;0.60;;;12.50;99.90;;;;;;5006901;28;20034;-75
2023/10/29 03:02:07;;;;;;;3.20;0.90;;;12.50;99.90;;;;;;5005380;28;20383;-75
2023/10/29 03:04:33;;;;;;;6.05;1.00;;;12.50;99.90;;;;;;5010979;28;20080;-75
2023/10/29 03:06:59;;;;;;;7.38;0.90;;;12.60;99.90;;;;;;5010269;28;20062;-75
2023/10/29 03:09:24;;;;;;;2.63;0.63;;;12.60;99.90;;;;;;5010405;28;20471;-75
2023/10/29 03:11:50;;;;;;;2.83;0.80;;;12.70;99.90;;;;;;5005613;28;20048;-75
2023/10/29 03:14:16;;;;;;;3.67;0.85;;;12.70;99.90;;;;;;5011184;28;20093;-75
2023/10/29 03:16:41;;;;;;;1.98;0.88;;;12.80;99.90;;;;;;5006612;28;20014;-75
2023/10/29 03:19:07;;;;;;;4.78;0.80;;;12.80;99.90;;;;;;5006538;28;20034;-75
2023/10/29 03:21:32;;;;;;;3.45;0.90;;;12.80;99.90;;;;;;5010707;28;20045;-75
2023/10/29 03:23:58;;;;;;;4.25;0.85;;;12.90;99.90;;;;;;5010455;28;20022;-75
2023/10/29 03:26:24;;;;;;;2.35;0.93;;;13.00;99.90;;;;;;5005853;28;20475;-75
2023/10/29 03:28:50;;;;;;;3.47;0.82;;;13.00;99.90;;;;;;5009252;28;20021;-75
2023/10/29 03:31:16;;;;;;;2.90;0.80;;;13.10;99.90;;;;;;5009718;28;20022;-75
2023/10/29 03:33:42;;;;;;;2.50;0.90;;;13.10;99.90;;;;;;5009814;28;20451;-75
2023/10/29 03:36:08;;;;;;;6.72;1.02;;;13.10;99.90;;;;;;5009207;28;20478;-75
2023/10/29 03:38:34;;;;;;;3.70;0.90;;;13.20;99.90;;;;;;5010418;28;20502;-75
2023/10/29 03:41:00;;;;;;;2.75;0.82;;;13.20;99.90;;;;;;5008316;28;20203;-75
2023/10/29 03:43:26;;;;;;;2.47;0.88;;;13.20;99.90;;;;;;5004243;28;20490;-75
2023/10/29 03:45:51;;;;;;;5.20;1.08;;;13.20;99.90;;;;;;5003774;28;20072;-75
2023/10/29 03:48:17;;;;;;;3.03;0.70;;;13.30;99.90;;;;;;5010387;28;20051;-75
2023/10/29 03:50:45;;;;;;;5.03;0.90;;;13.30;99.90;;;;;;5009629;28;20030;-75
2023/10/29 03:53:11;;;;;;;5.00;0.88;;;13.30;99.90;;;;;;5008866;28;20115;-75
2023/10/29 03:55:37;;;;;;;7.00;1.00;;;13.30;99.90;;;;;;5009709;28;20499;-75
2023/10/29 03:58:02;;;;;;;3.47;0.77;;;13.30;99.90;;;;;;5008406;28;20496;-75
2023/10/29 04:00:29;;;;;;;5.38;1.33;;;13.30;99.90;;;;;;5008822;28;20112;-75
2023/10/29 04:02:55;;;;;;;3.28;0.95;;;13.30;99.90;;;;;;5000632;28;20022;-75
2023/10/29 04:05:21;;;;;;;2.97;0.85;;;13.40;99.90;;;;;;5009165;28;20018;-76
2023/10/29 04:07:47;;;;;;;7.95;1.45;;;13.40;99.90;;;;;;5008993;28;20018;-75
2023/10/29 04:10:13;;;;;;;4.03;1.23;;;13.40;99.90;;;;;;5009005;28;20411;-75
2023/10/29 04:12:39;;;;;;;2.78;0.70;;;13.30;99.90;;;;;;5009958;28;20494;-75
2023/10/29 04:15:05;;;;;;;2.53;0.50;;;12.90;99.90;;;;;;5009170;28;20101;-74
2023/10/29 04:17:31;;;;;;;2.22;0.43;;;12.70;99.90;;;;;;5009292;28;20025;-75
2023/10/29 04:19:57;;;;;;;2.42;0.40;;;12.50;99.90;;;;;;5006013;28;20502;-75
2023/10/29 04:22:23;;;;;;;2.22;0.60;;;12.30;99.90;;;;;;5008846;28;20040;-75
2023/10/29 04:24:48;;;;;;;2.17;0.68;;;12.20;99.90;;;;;;5009214;28;20097;-75
2023/10/29 04:27:14;;;;;;;6.18;0.60;;;12.20;99.90;;;;;;5008419;28;20033;-75
2023/10/29 04:29:40;;;;;;;4.00;0.60;;;12.10;99.90;;;;;;5008497;28;20122;-75
2023/10/29 04:32:05;;;;;;;4.53;0.70;;;12.10;99.90;;;;;;5009418;28;20017;-75
2023/10/29 04:34:31;;;;;;;3.67;0.55;;;12.10;99.90;;;;;;5004303;28;20031;-75
2023/10/29 04:36:57;;;;;;;4.30;0.90;;;12.00;99.90;;;;;;5003314;28;20046;-75
2023/10/29 04:39:24;;;;;;;5.00;0.95;;;12.00;99.90;;;;;;5005550;28;20050;-75
2023/10/29 04:41:49;;;;;;;5.43;1.08;;;12.10;99.90;;;;;;5004639;28;20018;-75
2023/10/29 04:44:16;;;;;;;5.75;0.95;;;12.30;99.90;;;;;;5009327;28;20080;-75
2023/10/29 04:46:41;;;;;;;7.10;1.23;;;12.40;99.90;;;;;;5009189;28;20444;-75
2023/10/29 04:49:07;;;;;;;7.03;1.13;;;12.50;99.90;;;;;;5008837;28;20053;-75
2023/10/29 04:51:33;;;;;;;4.45;1.00;;;12.60;99.90;;;;;;5009257;28;20104;-75
2023/10/29 04:54:00;;;;;;;6.28;0.95;;;12.60;99.90;;;;;;5009451;28;20034;-75
2023/10/29 04:56:26;;;;;;;8.85;1.10;;;12.60;99.90;;;;;;5000532;28;20105;-75
2023/10/29 04:58:51;;;;;;;8.30;1.25;;;12.70;99.90;;;;;;5005152;28;20109;-75
2023/10/29 05:01:20;;;;;;;6.88;1.00;;;12.70;99.90;;;;;;5002356;28;20030;-75
2023/10/29 05:03:46;;;;;;;7.97;1.00;;;12.70;99.90;;;;;;5006866;28;20113;-75
2023/10/29 05:06:21;;;;;;;8.05;1.15;;;12.80;99.90;;;;;;5002670;28;20109;-75
2023/10/29 05:08:47;;;;;;;8.48;1.23;;;12.80;99.90;;;;;;5004878;28;20431;-75
2023/10/29 05:11:13;;;;;;;6.72;1.30;;;12.90;99.90;;;;;;5009935;28;20057;-75
2023/10/29 05:13:39;;;;;;;4.03;1.05;;;12.90;99.90;;;;;;5007686;28;20033;-75
2023/10/29 05:16:05;;;;;;;10.35;1.20;;;12.90;99.90;;;;;;5012200;28;20080;-75
2023/10/29 05:18:31;;;;;;;7.05;1.25;;;12.90;99.90;;;;;;5010960;28;20021;-75
2023/10/29 05:20:56;;;;;;;6.10;1.30;;;12.90;99.90;;;;;;5003501;28;20538;-75
2023/10/29 05:23:22;;;;;;;5.55;1.20;;;12.90;99.90;;;;;;5011400;28;20014;-75
2023/10/29 05:25:48;;;;;;;9.00;1.08;;;12.80;99.90;;;;;;5002173;28;20030;-75
2023/10/29 05:28:13;;;;;;;7.90;1.40;;;12.80;99.90;;;;;;5008589;28;20041;-75
2023/10/29 05:30:39;;;;;;;7.30;1.02;;;12.80;99.90;;;;;;5012282;28;20372;-75
2023/10/29 05:33:05;;;;;;;10.02;1.42;;;12.70;99.90;;;;;;5008411;28;20034;-75
2023/10/29 05:35:30;;;;;;;6.40;1.13;;;12.70;99.90;;;;;;5001947;28;20023;-76
2023/10/29 05:37:56;;;;;;;7.35;1.27;;;12.60;99.90;;;;;;5011853;28;20518;-76
2023/10/29 05:40:21;;;;;;;5.90;1.35;;;12.70;99.90;;;;;;5009227;28;20106;-76
2023/10/29 05:42:47;;;;;;;7.30;1.30;;;12.70;99.90;;;;;;5011870;28;20188;-76
2023/10/29 05:45:13;;;;;;;7.97;1.45;;;12.70;99.90;;;;;;4999897;28;20060;-75
2023/10/29 05:47:38;;;;;;;5.43;1.30;;;12.60;99.90;;;;;;5004666;28;20465;-75
2023/10/29 05:50:04;;;;;;;5.75;1.27;;;12.60;99.90;;;;;;4997069;28;20034;-75
2023/10/29 05:52:30;;;;;;;6.13;1.20;;;12.60;99.90;;;;;;4998397;28;20137;-76
2023/10/29 05:54:56;;;;;;;10.77;1.55;;;12.60;99.90;;;;;;5002901;28;20069;-75
2023/10/29 05:57:22;;;;;;;9.35;1.88;;;12.60;99.90;;;;;;5010893;28;20014;-75
2023/10/29 05:59:48;;;;;;;6.97;1.27;;;12.50;99.90;;;;;;5012100;28;20037;-75
2023/10/29 06:02:14;;;;;;;10.02;1.60;;;12.50;99.90;;;;;;5011418;28;20030;-75
2023/10/29 06:04:40;;;;;;;7.82;1.30;;;12.60;99.90;;;;;;5011699;28;20138;-75
2023/10/29 06:07:07;;;;;;;11.35;1.50;;;12.50;99.90;;;;;;5012273;28;20026;-76
2023/10/29 06:09:33;;;;;;;6.68;1.27;;;12.50;99.90;;;;;;5012191;28;20022;-76
2023/10/29 06:11:58;;;;;;;10.15;2.05;;;12.50;99.90;;;;;;5010846;28;20530;-75
2023/10/29 06:14:24;;;;;;;15.45;1.70;;;12.50;99.90;;;;;;4998976;28;20398;-75
2023/10/29 06:16:56;;;;;;;8.23;1.25;;;12.50;99.90;;;;;;5005739;28;20030;-75
2023/10/29 06:19:22;;;;;;;6.25;1.40;;;12.50;99.90;;;;;;5002814;28;20060;-75
2023/10/29 06:21:48;;;;;;;13.38;1.67;;;12.40;99.90;;;;;;5007977;28;20022;-76
2023/10/29 06:24:13;;;;;;;8.40;1.50;;;12.40;99.90;;;;;;5007004;28;20226;-75
2023/10/29 06:26:39;;;;;;;8.55;1.20;;;12.40;99.90;;;;;;5011212;28;20096;-75
2023/10/29 06:29:06;;;;;;;9.70;1.60;;;12.40;99.90;;;;;;5007404;28;20026;-75
2023/10/29 06:31:33;;;;;;;11.13;1.50;;;12.40;99.90;;;;;;5011197;28;20531;-75
2023/10/29 06:33:59;;;;;;;7.30;1.70;;;12.40;99.90;;;;;;5006726;28;20499;-76
2023/10/29 06:36:25;;;;;;;9.15;1.58;;;12.40;99.90;;;;;;5025427;28;20038;-75
2023/10/29 06:38:50;;;;;;;5.78;1.25;;;12.40;99.90;;;;;;5008664;28;20087;-75
2023/10/29 06:41:16;;;;;;;6.20;1.20;;;12.30;99.90;;;;;;5010592;28;20110;-76
2023/10/29 06:43:42;;;;;;;9.02;1.70;;;12.30;99.90;;;;;;5009050;28;20040;-76
2023/10/29 06:46:07;;;;;;;7.90;1.40;;;12.40;99.90;;;;;;5009450;28;20026;-75
2023/10/29 06:48:33;;;;;;;9.15;1.42;;;12.30;99.90;;;;;;5008047;28;20034;-76
2023/10/29 06:50:58;;;;;;;12.55;1.60;;;12.30;99.90;;;;;;5012044;28;20059;-76
2023/10/29 06:53:24;;;;;;;11.52;1.63;;;12.40;99.90;;;;;;5011412;28;20561;-76
2023/10/29 06:55:49;;;;;;;7.13;1.58;;;12.40;99.90;;;;;;5008188;28;20034;-77
2023/10/29 06:58:15;;;;;;;6.03;1.17;;;12.30;99.90;;;;;;5009728;28;20589;-76
2023/10/29 07:00:40;;;;;;;8.82;1.33;;;12.30;99.90;;;;;;5009068;28;20053;-76
2023/10/29 07:03:07;;;;;;;5.78;1.08;;;12.30;99.90;;;;;;5010009;28;20026;-76
2023/10/29 07:05:33;;;;;;;8.65;1.27;;;12.40;99.90;;;;;;5009374;28;20095;-76
2023/10/29 07:07:59;;;;;;;5.78;1.27;;;12.30;99.90;;;;;;5010670;28;20569;-76
2023/10/29 07:10:24;;;;;;;8.75;1.30;;;12.40;99.90;;;;;;5010304;28;20064;-76
2023/10/29 07:12:50;;;;;;;7.18;1.45;;;12.40;99.90;;;;;;5009959;28;20071;-77
2023/10/29 07:15:16;;;;;;;11.52;1.60;;;12.40;99.90;;;;;;5005705;28;20022;-77
2023/10/29 07:17:41;;;;;;;7.35;1.63;;;12.40;99.90;;;;;;5008685;28;20072;-77
2023/10/29 07:20:08;;;;;;;5.82;1.35;;;12.40;99.90;;;;;;5008606;28;20030;-76
2023/10/29 07:22:33;;;;;;;8.10;1.20;;;12.40;99.90;;;;;;5009987;28;20058;-76
2023/10/29 07:24:59;;;;;;;9.95;1.60;;;12.50;99.90;;;;;;5007725;28;20499;-77
2023/10/29 07:27:25;;;;;;;6.65;1.23;;;12.50;99.90;;;;;;5005831;28;20018;-77
2023/10/29 07:29:50;;;;;;;10.07;1.48;;;12.50;99.90;;;;;;5009530;28;20117;-76
2023/10/29 07:32:16;;;;;;;7.50;1.30;;;12.50;99.90;;;;;;5006981;28;20259;-76
2023/10/29 07:34:41;;;;;;;5.78;1.27;;;12.60;99.90;;;;;;4996314;28;20029;-76
2023/10/29 07:37:07;;;;;;;6.15;1.30;;;12.60;99.90;;;;;;5003474;28;20175;-77
2023/10/29 07:39:33;;;;;;;8.45;1.38;;;12.60;99.90;;;;;;5008600;28;20409;-76
2023/10/29 07:42:01;;;;;;;7.63;1.40;;;12.60;99.90;;;;;;5010178;28;20413;-76
2023/10/29 07:44:27;;;;;;;8.63;1.38;;;12.60;99.90;;;;;;5009501;28;20030;-76
2023/10/29 07:46:53;;;;;;;7.97;1.30;;;12.70;99.90;;;;;;5018665;28;20025;-76
2023/10/29 07:49:18;;;;;;;11.68;1.30;;;12.60;99.90;;;;;;5001122;28;20423;-76
2023/10/29 07:51:44;;;;;;;8.35;1.35;;;12.70;99.90;;;;;;5008606;28;20155;-76
2023/10/29 07:54:09;;;;;;;7.18;0.90;;;12.60;99.90;;;;;;5006488;28;20100;-77
2023/10/29 07:56:35;;;;;;;7.00;1.27;;;12.60;99.90;;;;;;5010423;28;20022;-76
2023/10/29 07:59:00;;;;;;;9.05;1.50;;;12.60;99.90;;;;;;5017074;28;20029;-75
2023/10/29 08:01:26;;;;;;;8.95;1.20;;;12.60;99.90;;;;;;5005380;28;20394;-75
2023/10/29 08:03:52;;;;;;;7.55;1.25;;;12.60;99.90;;;;;;5008157;28;20018;-76
2023/10/29 08:06:18;;;;;;;7.88;1.50;;;12.60;99.90;;;;;;5011739;28;20017;-75
2023/10/29 08:08:44;;;;;;;5.65;0.93;;;12.60;99.90;;;;;;5009071;28;20022;-75
2023/10/29 08:11:22;;;;;;;6.90;1.20;;;12.60;99.90;;;;;;5009130;28;20455;-75
2023/10/29 08:13:48;;;;;;;10.95;1.40;;;12.60;99.90;;;;;;5004806;28;20448;-76
2023/10/29 08:16:13;;;;;;;5.72;1.73;;;12.60;99.90;;;;;;5005892;28;20033;-75
2023/10/29 08:18:39;;;;;;;5.65;1.60;;;12.50;99.90;;;;;;5008094;28;20033;-75
2023/10/29 08:21:06;;;;;;;7.20;1.30;;;12.50;99.90;;;;;;5008641;28;20076;-75
2023/10/29 08:23:31;;;;;;;9.25;1.35;;;12.50;99.90;;;;;;5007570;28;20026;-76
2023/10/29 08:25:57;;;;;;;9.80;1.10;;;12.50;99.90;;;;;;5009004;28;20564;-75
2023/10/29 08:28:25;;;;;;;9.65;1.63;;;12.60;99.90;;;;;;5008833;28;21350;-76
2023/10/29 08:30:50;;;;;;;7.35;1.30;;;12.60;99.90;;;;;;5008540;28;20014;-75
2023/10/29 08:33:17;;;;;;;11.43;1.70;;;12.60;99.90;;;;;;5009288;28;20037;-76
2023/10/29 08:35:44;;;;;;;10.73;1.50;;;12.60;99.90;;;;;;5008410;28;20368;-76
2023/10/29 08:38:10;;;;;;;7.30;1.42;;;12.70;99.90;;;;;;5008132;28;20541;-74
2023/10/29 08:40:35;;;;;;;5.45;1.10;;;12.70;99.90;;;;;;5008296;28;20038;-74
2023/10/29 08:43:05;;;;;;;8.63;1.40;;;12.70;99.90;;;;;;5009247;28;20491;-74
2023/10/29 08:45:30;;;;;;;10.77;1.73;;;12.70;99.90;;;;;;5008159;28;20028;-74
2023/10/29 08:47:56;;;;;;;5.30;1.10;;;12.80;99.90;;;;;;5009291;28;20477;-76
2023/10/29 08:50:22;;;;;;;5.78;1.10;;;12.80;99.90;;;;;;5007632;28;20113;-76
2023/10/29 08:52:47;;;;;;;9.60;1.70;;;12.80;99.90;;;;;;5009584;28;20486;-76
2023/10/29 08:55:13;;;;;;;11.80;1.67;;;12.80;99.90;;;;;;5011954;28;20077;-76
2023/10/29 08:57:38;;;;;;;9.07;1.63;;;12.80;99.90;;;;;;5013477;28;20100;-76
2023/10/29 09:00:04;;;;;;;12.15;1.23;;;12.80;99.90;;;;;;5003229;28;20431;-76
2023/10/29 09:02:30;;;;;;;6.75;1.42;;;12.80;99.90;;;;;;5011762;28;20033;-75
2023/10/29 09:04:57;;;;;;;7.78;1.60;;;12.80;99.90;;;;;;5013634;28;20229;-75
2023/10/29 09:07:24;;;;;;;6.47;1.10;;;12.80;99.90;;;;;;5012726;28;20042;-75
2023/10/29 09:09:50;;;;;;;7.97;1.30;;;12.90;99.90;;;;;;5003779;28;20027;-75
2023/10/29 09:12:15;;;;;;;8.02;1.25;;;12.90;99.90;;;;;;5000055;28;20395;-75
2023/10/29 09:14:41;;;;;;;10.25;1.50;;;12.90;99.90;;;;;;5012437;28;20056;-75
2023/10/29 09:17:06;;;;;;;8.57;1.60;;;13.00;99.90;;;;;;5011196;28;20029;-76
2023/10/29 09:19:33;;;;;;;9.98;1.50;;;13.00;99.90;;;;;;5013171;28;20461;-75
2023/10/29 09:22:00;;;;;;;13.20;1.55;;;13.00;99.90;;;;;;5004058;28;20583;-75
2023/10/29 09:24:25;;;;;;;12.15;1.50;;;13.10;99.90;;;;;;5013367;28;20033;-75
2023/10/29 09:26:51;;;;;;;12.00;1.83;;;13.10;99.90;;;;;;5012383;28;20026;-75
2023/10/29 09:29:16;;;;;;;9.80;1.40;;;13.10;99.90;;;;;;4996818;28;20101;-75
2023/10/29 09:31:42;;;;;;;12.32;2.20;;;13.10;99.90;;;;;;5007067;28;20054;-75
2023/10/29 09:34:08;;;;;;;8.00;1.30;;;13.10;99.90;;;;;;4997636;28;20011;-76
2023/10/29 09:36:34;;;;;;;10.45;1.60;;;13.20;99.90;;;;;;5002255;28;20087;-75
2023/10/29 09:38:59;;;;;;;12.98;1.73;;;13.20;99.90;;;;;;4996367;28;20478;-76
2023/10/29 09:41:25;;;;;;;8.40;1.60;;;13.20;99.90;;;;;;5004010;28;20022;-75
2023/10/29 09:43:53;;;;;;;10.25;1.75;;;13.20;99.90;;;;;;5009999;28;20053;-75
2023/10/29 09:46:20;;;;;;;10.82;1.63;;;13.20;99.90;;;;;;5011200;28;20022;-75
2023/10/29 09:48:46;;;;;;;8.70;1.95;;;13.20;99.90;;;;;;5010944;28;20512;-75
2023/10/29 09:51:12;;;;;;;9.65;1.90;;;13.30;99.90;;;;;;5012304;28;20046;-75
2023/10/29 09:53:38;;;;;;;16.60;2.45;;;13.30;99.90;;;;;;4999114;28;20386;-76
2023/10/29 09:56:10;;;;;;;14.00;2.08;;;13.30;99.90;;;;;;5010760;28;20524;-75
2023/10/29 09:58:36;;;;;;;13.20;2.17;;;13.30;99.90;;;;;;5012751;28;20507;-75
2023/10/29 10:01:04;;;;;;;9.13;2.10;;;13.30;99.90;;;;;;5006304;28;20083;-75
2023/10/29 10:03:30;;;;;;;14.32;2.00;;;13.40;99.90;;;;;;4997289;28;20038;-75
2023/10/29 10:05:57;;;;;;;12.60;2.00;;;13.40;99.90;;;;;;5005024;28;20021;-75
2023/10/29 10:08:26;;;;;;;17.30;2.40;;;13.40;99.90;;;;;;5010963;28;20038;-75
2023/10/29 10:10:55;;;;;;;15.32;1.95;;;13.40;99.90;;;;;;5010913;28;20034;-75
2023/10/29 10:13:41;;;;;;;16.95;2.40;;;13.50;99.90;;;;;;5011476;28;20176;-75
2023/10/29 10:16:14;;;;;;;11.32;2.17;;;13.70;99.90;;;;;;5002395;28;20026;-75
2023/10/29 10:18:57;;;;;;;12.10;1.88;;;13.70;99.90;;;;;;5009900;28;20473;-75
2023/10/29 10:21:25;;;;;;;14.30;2.33;;;13.80;99.90;;;;;;5003915;28;20034;-75
2023/10/29 10:23:55;;;;;;;12.38;2.05;;;13.90;99.90;;;;;;5003654;28;20046;-75
2023/10/29 10:26:34;;;;;;;18.65;2.85;;;13.90;99.90;;;;;;5005150;28;20483;-74
2023/10/29 10:29:04;;;;;;;14.77;2.30;;;14.00;99.90;;;;;;5008092;28;20496;-75
2023/10/29 10:31:34;;;;;;;15.52;2.33;;;13.90;99.90;;;;;;5009555;28;20037;-75
2023/10/29 10:34:11;;;;;;;14.25;2.05;;;14.00;99.90;;;;;;5008338;28;20045;-75
2023/10/29 10:36:37;;;;;;;18.67;2.45;;;14.00;99.90;;;;;;5007093;28;20022;-76
2023/10/29 10:39:03;;;;;;;13.65;2.55;;;14.00;99.90;;;;;;5010676;28;20025;-75
2023/10/29 10:41:48;;;;;;;12.02;2.17;;;14.00;99.90;;;;;;5011986;28;20503;-76
2023/10/29 10:44:16;;;;;;;14.38;2.25;;;14.10;99.90;;;;;;5001402;28;20144;-76
2023/10/29 10:46:49;;;;;;;13.60;2.10;;;14.10;99.90;;;;;;5009464;28;20087;-73
2023/10/29 10:49:16;;;;;;;15.18;2.38;;;14.20;99.90;;;;;;5010300;28;20449;-76
2023/10/29 10:51:42;;;;;;;14.82;2.30;;;14.20;99.90;;;;;;5011152;28;20050;-75
2023/10/29 10:54:08;;;;;;;10.63;2.20;;;14.20;99.90;;;;;;5010532;28;20028;-75
2023/10/29 10:56:36;;;;;;;12.00;2.00;;;14.20;99.90;;;;;;5001013;28;20041;-75
2023/10/29 10:59:06;;;;;;;12.75;2.33;;;14.10;99.90;;;;;;5003964;28;20387;-75
2023/10/29 11:01:38;;;;;;;18.25;2.95;;;14.00;99.90;;;;;;5003982;28;20471;-75
2023/10/29 11:04:06;;;;;;;12.98;1.92;;;14.00;99.90;;;;;;5010382;28;20552;-75
2023/10/29 11:06:32;;;;;;;16.83;2.20;;;14.00;99.90;;;;;;5005911;28;20389;-75
2023/10/29 11:08:59;;;;;;;16.33;2.25;;;14.00;99.90;;;;;;5010622;28;20040;-75
2023/10/29 11:11:33;;;;;;;12.55;2.40;;;14.00;99.90;;;;;;5010029;28;20502;-75
2023/10/29 11:14:14;;;;;;;16.05;2.55;;;13.90;99.90;;;;;;5006122;28;20022;-75
2023/10/29 11:16:47;;;;;;;10.38;1.80;;;13.90;99.90;;;;;;5002452;28;20049;-75
2023/10/29 11:19:36;;;;;;;13.23;2.58;;;13.90;99.90;;;;;;5005704;28;20084;-75
2023/10/29 11:22:17;;;;;;;19.55;2.10;;;13.90;99.90;;;;;;5010297;28;20100;-75
2023/10/29 11:24:44;;;;;;;13.02;2.28;;;13.90;99.90;;;;;;5010766;28;20518;-75
2023/10/29 11:27:47;;;;;;;17.58;2.47;;;13.90;99.90;;;;;;5010258;28;20022;-76
2023/10/29 11:30:21;;;;;;;15.70;2.38;;;13.90;99.90;;;;;;5008899;28;20109;-75
2023/10/29 11:33:08;;;;;;;14.20;2.50;;;14.00;99.90;;;;;;5004086;28;20418;-75
2023/10/29 11:35:34;;;;;;;15.73;2.33;;;14.00;99.90;;;;;;5007185;28;20026;-76
2023/10/29 11:38:01;;;;;;;13.82;2.53;;;14.00;99.90;;;;;;5010788;28;20030;-75
2023/10/29 11:40:31;;;;;;;13.95;2.00;;;14.00;99.90;;;;;;5022612;28;20034;-75
2023/10/29 11:43:14;;;;;;;15.77;2.15;;;14.00;99.90;;;;;;5004848;28;20523;-75
2023/10/29 11:45:39;;;;;;;16.83;2.53;;;14.10;99.90;;;;;;5007085;28;20056;-76
2023/10/29 11:48:16;;;;;;;17.25;2.10;;;14.10;99.90;;;;;;5004319;28;20059;-76
2023/10/29 11:51:11;;;;;;;16.05;2.67;;;14.10;99.90;;;;;;5007586;28;20036;-76
2023/10/29 11:53:37;;;;;;;14.52;2.38;;;14.10;99.90;;;;;;5004618;28;20125;-75
2023/10/29 11:56:09;;;;;;;15.00;2.20;;;14.10;99.90;;;;;;5009884;28;20030;-76
2023/10/29 11:58:36;;;;;;;14.35;2.30;;;14.10;99.90;;;;;;5010179;28;20022;-76
2023/10/29 12:01:02;;;;;;;16.80;2.55;;;14.10;99.90;;;;;;5010206;28;20026;-76
2023/10/29 12:03:31;;;;;;;18.40;2.58;;;14.10;99.90;;;;;;5004092;28;20029;-75
2023/10/29 12:05:56;;;;;;;13.63;2.53;;;14.00;99.90;;;;;;5004458;28;20080;-75
2023/10/29 12:08:23;;;;;;;15.75;2.35;;;14.00;99.90;;;;;;5009434;28;20391;-75
2023/10/29 12:10:51;;;;;;;18.70;2.40;;;14.00;99.90;;;;;;5001281;28;20030;-75
2023/10/29 12:13:18;;;;;;;15.68;2.38;;;14.10;99.90;;;;;;5008219;28;20018;-75
2023/10/29 12:15:54;;;;;;;14.80;2.35;;;14.10;99.90;;;;;;5013845;28;20106;-75
2023/10/29 12:18:20;;;;;;;15.98;2.47;;;14.10;99.90;;;;;;5010803;28;20030;-75
2023/10/29 12:20:47;;;;;;;20.10;2.90;;;14.20;99.90;;;;;;5010842;28;20034;-75
2023/10/29 12:23:13;;;;;;;15.60;2.70;;;14.30;99.90;;;;;;5015459;28;20079;-73
2023/10/29 12:25:39;;;;;;;20.65;2.50;;;14.30;99.90;;;;;;5015539;28;20033;-74
2023/10/29 12:28:06;;;;;;;16.35;2.20;;;14.40;99.90;;;;;;5016449;28;20018;-74
2023/10/29 12:30:49;;;;;;;16.15;2.55;;;14.40;99.90;;;;;;5031114;28;20030;-74
2023/10/29 12:33:22;;;;;;;16.30;2.40;;;14.40;99.90;;;;;;5014467;28;20029;-74
2023/10/29 12:35:50;;;;;;;15.50;2.50;;;14.40;99.90;;;;;;5011314;28;20026;-74
2023/10/29 12:38:17;;;;;;;12.48;2.20;;;14.40;99.90;;;;;;5015339;28;20433;-75
2023/10/29 12:41:14;;;;;;;18.27;2.60;;;14.40;99.90;;;;;;5005459;28;20076;-75
2023/10/29 12:43:43;;;;;;;14.20;2.40;;;14.50;99.90;;;;;;5011820;28;20045;-74
2023/10/29 12:46:13;;;;;;;17.70;2.63;;;14.50;99.90;;;;;;5006300;28;20038;-75